sensor_id;sensor_type;location;lat;lon;timestamp;temperature;humidity
13091;DHT22;6611;52.604;13.438;2022-08-21T00:01:18;19.29;91.46
13091;DHT22;6611;52.604;13.438;2022-08-21T00:06:21;19.24;91.43
13091;DHT22;6611;52.604;13.438;2022-08-21T00:11:24;19.24;91.24
13091;DHT22;6611;52.604;13.438;2022-08-21T00:16:28;19.18;91.39
13091;DHT22;6611;52.604;13.438;2022-08-21T00:21:30;19.16;91.32
13091;DHT22;6611;52.604;13.438;2022-08-21T00:26:31;19.16;91.59
13091;DHT22;6611;52.604;13.438;2022-08-21T00:31:34;19.16;91.50
13091;DHT22;6611;52.604;13.438;2022-08-21T00:36:36;19.16;91.30
13091;DHT22;6611;52.604;13.438;2022-08-21T00:41:38;19.16;91.50
13091;DHT22;6611;52.604;13.438;2022-08-21T00:46:42;19.09;91.43
13091;DHT22;6611;52.604;13.438;2022-08-21T00:51:49;19.06;91.42
13091;DHT22;6611;52.604;13.438;2022-08-21T00:56:54;19.08;91.66
13091;DHT22;6611;52.604;13.438;2022-08-21T01:01:58;19.03;91.66
13091;DHT22;6611;52.604;13.438;2022-08-21T01:06:59;19.03;91.66
13091;DHT22;6611;52.604;13.438;2022-08-21T01:12:02;18.98;91.72
13091;DHT22;6611;52.604;13.438;2022-08-21T01:17:05;18.91;91.88
13091;DHT22;6611;52.604;13.438;2022-08-21T01:22:09;18.95;91.80
13091;DHT22;6611;52.604;13.438;2022-08-21T01:27:11;18.89;90.95
13091;DHT22;6611;52.604;13.438;2022-08-21T01:32:14;18.83;91.16
13091;DHT22;6611;52.604;13.438;2022-08-21T01:37:19;18.74;91.02
13091;DHT22;6611;52.604;13.438;2022-08-21T01:42:20;18.72;91.29
13091;DHT22;6611;52.604;13.438;2022-08-21T01:47:23;18.61;91.35
13091;DHT22;6611;52.604;13.438;2022-08-21T01:52:26;18.59;91.44
13091;DHT22;6611;52.604;13.438;2022-08-21T01:57:27;18.54;91.56
13091;DHT22;6611;52.604;13.438;2022-08-21T02:02:29;18.60;90.71
13091;DHT22;6611;52.604;13.438;2022-08-21T02:07:36;18.53;90.86
13091;DHT22;6611;52.604;13.438;2022-08-21T02:12:38;18.49;90.77
13091;DHT22;6611;52.604;13.438;2022-08-21T02:17:43;18.40;90.82
13091;DHT22;6611;52.604;13.438;2022-08-21T02:22:46;18.33;91.12
13091;DHT22;6611;52.604;13.438;2022-08-21T02:27:48;18.29;91.31
13091;DHT22;6611;52.604;13.438;2022-08-21T02:32:50;18.25;91.11
13091;DHT22;6611;52.604;13.438;2022-08-21T02:37:57;18.22;91.13
13091;DHT22;6611;52.604;13.438;2022-08-21T02:43:00;18.19;90.98
13091;DHT22;6611;52.604;13.438;2022-08-21T02:48:04;18.19;90.74
13091;DHT22;6611;52.604;13.438;2022-08-21T02:53:10;18.12;90.53
13091;DHT22;6611;52.604;13.438;2022-08-21T02:58:14;18.13;90.34
13091;DHT22;6611;52.604;13.438;2022-08-21T03:03:16;18.08;90.14
13091;DHT22;6611;52.604;13.438;2022-08-21T03:08:20;18.01;89.92
13091;DHT22;6611;52.604;13.438;2022-08-21T03:13:22;17.92;90.07
13091;DHT22;6611;52.604;13.438;2022-08-21T03:18:24;17.87;89.92
13091;DHT22;6611;52.604;13.438;2022-08-21T03:23:27;17.82;89.95
13091;DHT22;6611;52.604;13.438;2022-08-21T03:28:30;17.71;89.83
13091;DHT22;6611;52.604;13.438;2022-08-21T03:33:32;17.66;90.10
13091;DHT22;6611;52.604;13.438;2022-08-21T03:38:37;17.60;89.85
13091;DHT22;6611;52.604;13.438;2022-08-21T03:43:38;17.51;90.01
13091;DHT22;6611;52.604;13.438;2022-08-21T03:48:40;17.49;90.34
13091;DHT22;6611;52.604;13.438;2022-08-21T03:53:43;17.43;90.55
13091;DHT22;6611;52.604;13.438;2022-08-21T03:58:45;17.40;90.68
13091;DHT22;6611;52.604;13.438;2022-08-21T04:03:46;17.35;90.58
13091;DHT22;6611;52.604;13.438;2022-08-21T04:08:49;17.36;90.56
13091;DHT22;6611;52.604;13.438;2022-08-21T04:13:51;17.35;90.27
13091;DHT22;6611;52.604;13.438;2022-08-21T04:18:52;17.25;90.46
13091;DHT22;6611;52.604;13.438;2022-08-21T04:23:55;17.26;90.72
13091;DHT22;6611;52.604;13.438;2022-08-21T04:28:57;17.32;90.06
13091;DHT22;6611;52.604;13.438;2022-08-21T04:33:59;17.25;89.94
13091;DHT22;6611;52.604;13.438;2022-08-21T04:39:02;17.23;89.65
13091;DHT22;6611;52.604;13.438;2022-08-21T04:44:03;17.23;89.46
13091;DHT22;6611;52.604;13.438;2022-08-21T04:49:05;17.22;89.80
13091;DHT22;6611;52.604;13.438;2022-08-21T04:54:11;17.23;89.08
13091;DHT22;6611;52.604;13.438;2022-08-21T04:59:17;17.26;89.32
13091;DHT22;6611;52.604;13.438;2022-08-21T05:04:23;17.29;89.83
13091;DHT22;6611;52.604;13.438;2022-08-21T05:09:27;17.40;89.19
13091;DHT22;6611;52.604;13.438;2022-08-21T05:14:29;17.46;88.39
13091;DHT22;6611;52.604;13.438;2022-08-21T05:19:31;17.40;88.31
13091;DHT22;6611;52.604;13.438;2022-08-21T05:24:34;17.33;87.76
13091;DHT22;6611;52.604;13.438;2022-08-21T05:29:36;17.39;87.50
13091;DHT22;6611;52.604;13.438;2022-08-21T05:34:37;17.36;87.85
13091;DHT22;6611;52.604;13.438;2022-08-21T05:39:40;17.54;87.97
13091;DHT22;6611;52.604;13.438;2022-08-21T05:44:42;17.50;87.36
13091;DHT22;6611;52.604;13.438;2022-08-21T05:49:44;17.64;86.74
13091;DHT22;6611;52.604;13.438;2022-08-21T05:54:46;17.59;86.77
13091;DHT22;6611;52.604;13.438;2022-08-21T05:59:48;17.74;85.99
13091;DHT22;6611;52.604;13.438;2022-08-21T06:04:50;17.81;85.88
13091;DHT22;6611;52.604;13.438;2022-08-21T06:09:53;17.87;86.53
13091;DHT22;6611;52.604;13.438;2022-08-21T06:14:54;17.88;85.33
13091;DHT22;6611;52.604;13.438;2022-08-21T06:19:56;17.94;86.22
13091;DHT22;6611;52.604;13.438;2022-08-21T06:24:59;18.04;86.35
13091;DHT22;6611;52.604;13.438;2022-08-21T06:30:01;18.15;85.36
13091;DHT22;6611;52.604;13.438;2022-08-21T06:35:03;18.30;83.96
13091;DHT22;6611;52.604;13.438;2022-08-21T06:40:08;18.34;84.20
13091;DHT22;6611;52.604;13.438;2022-08-21T06:45:10;18.39;84.14
13091;DHT22;6611;52.604;13.438;2022-08-21T06:50:11;18.44;85.03
13091;DHT22;6611;52.604;13.438;2022-08-21T06:55:14;18.68;85.00
13091;DHT22;6611;52.604;13.438;2022-08-21T07:00:16;18.77;83.65
13091;DHT22;6611;52.604;13.438;2022-08-21T07:05:18;18.84;82.35
13091;DHT22;6611;52.604;13.438;2022-08-21T07:10:21;19.15;82.24
13091;DHT22;6611;52.604;13.438;2022-08-21T07:15:22;19.22;82.67
13091;DHT22;6611;52.604;13.438;2022-08-21T07:20:24;19.45;81.99
13091;DHT22;6611;52.604;13.438;2022-08-21T07:25:27;19.43;79.69
13091;DHT22;6611;52.604;13.438;2022-08-21T07:30:29;19.57;80.85
13091;DHT22;6611;52.604;13.438;2022-08-21T07:35:31;19.89;79.67
13091;DHT22;6611;52.604;13.438;2022-08-21T07:40:34;19.99;78.91
13091;DHT22;6611;52.604;13.438;2022-08-21T07:45:36;20.19;77.54
13091;DHT22;6611;52.604;13.438;2022-08-21T07:50:39;20.32;76.47
13091;DHT22;6611;52.604;13.438;2022-08-21T07:55:42;20.37;76.66
13091;DHT22;6611;52.604;13.438;2022-08-21T08:00:44;20.54;77.61
13091;DHT22;6611;52.604;13.438;2022-08-21T08:05:45;20.51;74.09
13091;DHT22;6611;52.604;13.438;2022-08-21T08:10:48;20.41;74.60
13091;DHT22;6611;52.604;13.438;2022-08-21T08:15:50;20.65;73.24
13091;DHT22;6611;52.604;13.438;2022-08-21T08:20:52;20.67;72.69
13091;DHT22;6611;52.604;13.438;2022-08-21T08:25:55;20.84;73.49
13091;DHT22;6611;52.604;13.438;2022-08-21T08:30:57;20.95;70.73
13091;DHT22;6611;52.604;13.438;2022-08-21T08:35:59;21.16;70.33
13091;DHT22;6611;52.604;13.438;2022-08-21T08:41:14;21.30;69.09
13091;DHT22;6611;52.604;13.438;2022-08-21T08:46:19;21.27;67.17
13091;DHT22;6611;52.604;13.438;2022-08-21T08:51:25;21.26;62.73
13091;DHT22;6611;52.604;13.438;2022-08-21T08:56:33;21.44;64.99
13091;DHT22;6611;52.604;13.438;2022-08-21T09:01:35;21.55;65.55
13091;DHT22;6611;52.604;13.438;2022-08-21T09:06:44;21.62;66.14
13091;DHT22;6611;52.604;13.438;2022-08-21T09:11:58;21.62;60.48
13091;DHT22;6611;52.604;13.438;2022-08-21T09:17:04;21.74;63.14
13091;DHT22;6611;52.604;13.438;2022-08-21T09:22:17;21.67;63.05
13091;DHT22;6611;52.604;13.438;2022-08-21T09:27:21;21.71;64.55
13091;DHT22;6611;52.604;13.438;2022-08-21T09:32:26;21.51;68.16
13091;DHT22;6611;52.604;13.438;2022-08-21T09:37:30;21.64;65.86
13091;DHT22;6611;52.604;13.438;2022-08-21T09:42:33;21.53;65.62
13091;DHT22;6611;52.604;13.438;2022-08-21T09:47:34;21.77;67.89
13091;DHT22;6611;52.604;13.438;2022-08-21T09:52:43;21.93;63.46
13091;DHT22;6611;52.604;13.438;2022-08-21T09:57:47;22.08;66.13
13091;DHT22;6611;52.604;13.438;2022-08-21T10:02:49;22.21;61.54
13091;DHT22;6611;52.604;13.438;2022-08-21T10:07:51;22.43;60.98
13091;DHT22;6611;52.604;13.438;2022-08-21T10:13:00;22.50;61.03
13091;DHT22;6611;52.604;13.438;2022-08-21T10:18:06;22.72;61.32
13091;DHT22;6611;52.604;13.438;2022-08-21T10:23:26;22.75;59.91
13091;DHT22;6611;52.604;13.438;2022-08-21T10:28:36;22.64;59.21
13091;DHT22;6611;52.604;13.438;2022-08-21T10:33:44;22.39;57.02
13091;DHT22;6611;52.604;13.438;2022-08-21T10:39:01;22.51;61.69
13091;DHT22;6611;52.604;13.438;2022-08-21T10:44:14;22.72;59.76
13091;DHT22;6611;52.604;13.438;2022-08-21T10:49:27;22.92;60.24
13091;DHT22;6611;52.604;13.438;2022-08-21T10:54:35;23.31;55.72
13091;DHT22;6611;52.604;13.438;2022-08-21T10:59:46;23.31;58.01
13091;DHT22;6611;52.604;13.438;2022-08-21T11:04:53;23.65;56.23
13091;DHT22;6611;52.604;13.438;2022-08-21T11:10:02;23.44;53.34
13091;DHT22;6611;52.604;13.438;2022-08-21T11:15:15;23.39;54.30
13091;DHT22;6611;52.604;13.438;2022-08-21T11:20:27;23.51;51.85
13091;DHT22;6611;52.604;13.438;2022-08-21T11:25:33;23.77;48.14
13091;DHT22;6611;52.604;13.438;2022-08-21T11:30:46;23.67;53.73
13091;DHT22;6611;52.604;13.438;2022-08-21T11:35:52;23.85;50.50
13091;DHT22;6611;52.604;13.438;2022-08-21T11:41:11;24.27;53.73
13091;DHT22;6611;52.604;13.438;2022-08-21T11:46:25;24.40;47.76
13091;DHT22;6611;52.604;13.438;2022-08-21T11:51:35;24.65;50.70
13091;DHT22;6611;52.604;13.438;2022-08-21T11:56:43;25.05;45.59
13091;DHT22;6611;52.604;13.438;2022-08-21T12:01:50;25.15;48.56
13091;DHT22;6611;52.604;13.438;2022-08-21T12:06:53;25.43;46.18
13091;DHT22;6611;52.604;13.438;2022-08-21T12:12:02;25.27;45.76
13091;DHT22;6611;52.604;13.438;2022-08-21T12:17:08;25.15;41.11
13091;DHT22;6611;52.604;13.438;2022-08-21T12:22:11;25.00;40.82
13091;DHT22;6611;52.604;13.438;2022-08-21T12:27:22;25.00;42.22
13091;DHT22;6611;52.604;13.438;2022-08-21T12:32:30;25.27;44.19
13091;DHT22;6611;52.604;13.438;2022-08-21T12:37:38;25.09;44.28
13091;DHT22;6611;52.604;13.438;2022-08-21T12:42:44;25.24;45.03
13091;DHT22;6611;52.604;13.438;2022-08-21T12:47:56;25.69;43.15
13091;DHT22;6611;52.604;13.438;2022-08-21T12:53:04;25.97;41.14
13091;DHT22;6611;52.604;13.438;2022-08-21T12:58:06;25.84;44.03
13091;DHT22;6611;52.604;13.438;2022-08-21T13:03:19;25.26;43.93
13091;DHT22;6611;52.604;13.438;2022-08-21T13:08:21;25.75;42.61
13091;DHT22;6611;52.604;13.438;2022-08-21T13:13:26;25.64;44.14
13091;DHT22;6611;52.604;13.438;2022-08-21T13:18:32;25.35;47.64
13091;DHT22;6611;52.604;13.438;2022-08-21T13:23:34;25.35;45.89
13091;DHT22;6611;52.604;13.438;2022-08-21T13:28:36;25.51;42.43
13091;DHT22;6611;52.604;13.438;2022-08-21T13:33:41;25.55;43.67
13091;DHT22;6611;52.604;13.438;2022-08-21T13:38:44;25.47;43.98
13091;DHT22;6611;52.604;13.438;2022-08-21T13:43:49;25.16;39.84
13091;DHT22;6611;52.604;13.438;2022-08-21T13:48:53;25.10;42.51
13091;DHT22;6611;52.604;13.438;2022-08-21T13:53:55;25.20;44.56
13091;DHT22;6611;52.604;13.438;2022-08-21T13:58:58;24.88;42.69
13091;DHT22;6611;52.604;13.438;2022-08-21T14:04:04;24.51;44.73
13091;DHT22;6611;52.604;13.438;2022-08-21T14:09:09;24.13;46.45
13091;DHT22;6611;52.604;13.438;2022-08-21T14:14:20;24.44;48.04
13091;DHT22;6611;52.604;13.438;2022-08-21T14:19:26;24.63;47.62
13091;DHT22;6611;52.604;13.438;2022-08-21T14:24:29;24.68;48.26
13091;DHT22;6611;52.604;13.438;2022-08-21T14:29:34;24.68;48.81
13091;DHT22;6611;52.604;13.438;2022-08-21T14:34:37;24.81;47.75
13091;DHT22;6611;52.604;13.438;2022-08-21T14:39:39;25.06;48.25
13091;DHT22;6611;52.604;13.438;2022-08-21T14:44:40;24.89;46.27
13091;DHT22;6611;52.604;13.438;2022-08-21T14:49:45;24.85;47.75
13091;DHT22;6611;52.604;13.438;2022-08-21T14:54:46;24.78;47.14
13091;DHT22;6611;52.604;13.438;2022-08-21T14:59:48;24.41;46.91
13091;DHT22;6611;52.604;13.438;2022-08-21T15:04:51;24.09;51.16
13091;DHT22;6611;52.604;13.438;2022-08-21T15:09:52;23.95;50.38
13091;DHT22;6611;52.604;13.438;2022-08-21T15:14:54;23.90;48.47
13091;DHT22;6611;52.604;13.438;2022-08-21T15:19:57;23.64;50.75
13091;DHT22;6611;52.604;13.438;2022-08-21T15:24:58;23.49;51.87
13091;DHT22;6611;52.604;13.438;2022-08-21T15:30:01;23.33;52.25
13091;DHT22;6611;52.604;13.438;2022-08-21T15:35:05;23.26;52.92
13091;DHT22;6611;52.604;13.438;2022-08-21T15:40:08;23.24;53.39
13091;DHT22;6611;52.604;13.438;2022-08-21T15:45:11;23.23;51.49
13091;DHT22;6611;52.604;13.438;2022-08-21T15:50:14;23.41;53.24
13091;DHT22;6611;52.604;13.438;2022-08-21T15:55:16;23.51;53.01
13091;DHT22;6611;52.604;13.438;2022-08-21T16:00:20;23.50;52.99
13091;DHT22;6611;52.604;13.438;2022-08-21T16:05:24;23.50;53.05
13091;DHT22;6611;52.604;13.438;2022-08-21T16:10:26;23.36;53.80
13091;DHT22;6611;52.604;13.438;2022-08-21T16:15:28;23.34;51.95
13091;DHT22;6611;52.604;13.438;2022-08-21T16:20:31;23.41;51.80
13091;DHT22;6611;52.604;13.438;2022-08-21T16:25:35;23.51;50.64
13091;DHT22;6611;52.604;13.438;2022-08-21T16:30:37;23.33;49.56
13091;DHT22;6611;52.604;13.438;2022-08-21T16:35:40;23.15;52.28
13091;DHT22;6611;52.604;13.438;2022-08-21T16:40:42;22.94;52.48
13091;DHT22;6611;52.604;13.438;2022-08-21T16:45:43;22.78;52.01
13091;DHT22;6611;52.604;13.438;2022-08-21T16:50:46;22.72;50.70
13091;DHT22;6611;52.604;13.438;2022-08-21T16:55:49;22.65;54.93
13091;DHT22;6611;52.604;13.438;2022-08-21T17:00:51;22.55;56.16
13091;DHT22;6611;52.604;13.438;2022-08-21T17:05:54;22.43;56.57
13091;DHT22;6611;52.604;13.438;2022-08-21T17:10:56;22.37;58.10
13091;DHT22;6611;52.604;13.438;2022-08-21T17:15:58;22.19;60.78
13091;DHT22;6611;52.604;13.438;2022-08-21T17:21:01;22.02;60.22
13091;DHT22;6611;52.604;13.438;2022-08-21T17:26:03;21.99;61.92
13091;DHT22;6611;52.604;13.438;2022-08-21T17:31:08;21.85;62.66
13091;DHT22;6611;52.604;13.438;2022-08-21T17:36:11;21.77;63.01
13091;DHT22;6611;52.604;13.438;2022-08-21T17:41:13;21.57;65.33
13091;DHT22;6611;52.604;13.438;2022-08-21T17:46:18;21.43;65.61
13091;DHT22;6611;52.604;13.438;2022-08-21T17:51:22;21.22;65.52
13091;DHT22;6611;52.604;13.438;2022-08-21T17:56:27;21.07;66.55
13091;DHT22;6611;52.604;13.438;2022-08-21T18:01:33;20.95;66.59
13091;DHT22;6611;52.604;13.438;2022-08-21T18:06:36;20.78;66.97
13091;DHT22;6611;52.604;13.438;2022-08-21T18:11:39;20.53;66.81
13091;DHT22;6611;52.604;13.438;2022-08-21T18:16:41;20.40;67.59
13091;DHT22;6611;52.604;13.438;2022-08-21T18:21:44;20.29;67.59
13091;DHT22;6611;52.604;13.438;2022-08-21T18:26:47;20.06;68.58
13091;DHT22;6611;52.604;13.438;2022-08-21T18:31:49;19.96;69.21
13091;DHT22;6611;52.604;13.438;2022-08-21T18:36:54;19.81;69.47
13091;DHT22;6611;52.604;13.438;2022-08-21T18:41:56;19.64;70.15
13091;DHT22;6611;52.604;13.438;2022-08-21T18:47:03;19.51;70.72
13091;DHT22;6611;52.604;13.438;2022-08-21T18:52:07;19.36;70.93
13091;DHT22;6611;52.604;13.438;2022-08-21T18:57:09;19.23;72.17
13091;DHT22;6611;52.604;13.438;2022-08-21T19:02:10;19.05;72.89
13091;DHT22;6611;52.604;13.438;2022-08-21T19:07:16;18.96;73.38
13091;DHT22;6611;52.604;13.438;2022-08-21T19:12:22;18.78;74.33
13091;DHT22;6611;52.604;13.438;2022-08-21T19:17:26;18.65;75.03
13091;DHT22;6611;52.604;13.438;2022-08-21T19:22:28;18.60;75.31
13091;DHT22;6611;52.604;13.438;2022-08-21T19:27:30;18.44;75.29
13091;DHT22;6611;52.604;13.438;2022-08-21T19:32:32;18.34;75.44
13091;DHT22;6611;52.604;13.438;2022-08-21T19:37:36;18.22;76.00
13091;DHT22;6611;52.604;13.438;2022-08-21T19:42:38;18.10;75.95
13091;DHT22;6611;52.604;13.438;2022-08-21T19:47:44;18.08;76.41
13091;DHT22;6611;52.604;13.438;2022-08-21T19:52:47;18.05;76.73
13091;DHT22;6611;52.604;13.438;2022-08-21T19:57:49;17.84;76.75
13091;DHT22;6611;52.604;13.438;2022-08-21T20:02:53;17.75;76.89
13091;DHT22;6611;52.604;13.438;2022-08-21T20:07:56;17.97;76.31
13091;DHT22;6611;52.604;13.438;2022-08-21T20:12:57;17.94;76.45
13091;DHT22;6611;52.604;13.438;2022-08-21T20:17:59;17.77;76.69
13091;DHT22;6611;52.604;13.438;2022-08-21T20:23:02;17.74;76.61
13091;DHT22;6611;52.604;13.438;2022-08-21T20:28:04;17.64;77.31
13091;DHT22;6611;52.604;13.438;2022-08-21T20:33:06;17.47;78.32
13091;DHT22;6611;52.604;13.438;2022-08-21T20:38:09;17.35;78.89
13091;DHT22;6611;52.604;13.438;2022-08-21T20:43:11;17.22;79.78
13091;DHT22;6611;52.604;13.438;2022-08-21T20:48:15;17.22;79.90
13091;DHT22;6611;52.604;13.438;2022-08-21T20:53:24;17.16;79.67
13091;DHT22;6611;52.604;13.438;2022-08-21T20:58:32;17.09;79.71
13091;DHT22;6611;52.604;13.438;2022-08-21T21:03:38;17.00;80.41
13091;DHT22;6611;52.604;13.438;2022-08-21T21:08:46;17.02;80.64
13091;DHT22;6611;52.604;13.438;2022-08-21T21:13:52;16.94;81.16
13091;DHT22;6611;52.604;13.438;2022-08-21T21:18:58;16.80;80.83
13091;DHT22;6611;52.604;13.438;2022-08-21T21:24:05;16.75;81.07
13091;DHT22;6611;52.604;13.438;2022-08-21T21:29:12;16.68;80.88
13091;DHT22;6611;52.604;13.438;2022-08-21T21:34:14;16.67;80.72
13091;DHT22;6611;52.604;13.438;2022-08-21T21:39:25;16.60;81.28
13091;DHT22;6611;52.604;13.438;2022-08-21T21:44:45;16.49;81.71
13091;DHT22;6611;52.604;13.438;2022-08-21T21:49:58;16.49;81.63
13091;DHT22;6611;52.604;13.438;2022-08-21T21:55:13;16.47;81.72
13091;DHT22;6611;52.604;13.438;2022-08-21T22:00:20;16.43;81.29
13091;DHT22;6611;52.604;13.438;2022-08-21T22:05:36;16.46;81.09
13091;DHT22;6611;52.604;13.438;2022-08-21T22:10:46;16.46;81.02
13091;DHT22;6611;52.604;13.438;2022-08-21T22:15:50;16.43;81.93
13091;DHT22;6611;52.604;13.438;2022-08-21T22:20:55;16.43;81.79
13091;DHT22;6611;52.604;13.438;2022-08-21T22:26:02;16.39;82.16
13091;DHT22;6611;52.604;13.438;2022-08-21T22:31:14;16.29;82.02
13091;DHT22;6611;52.604;13.438;2022-08-21T22:36:21;16.23;81.90
13091;DHT22;6611;52.604;13.438;2022-08-21T22:41:26;16.23;81.59
13091;DHT22;6611;52.604;13.438;2022-08-21T22:46:31;16.22;81.59
13091;DHT22;6611;52.604;13.438;2022-08-21T22:51:37;16.21;82.54
13091;DHT22;6611;52.604;13.438;2022-08-21T22:56:43;16.29;81.98
13091;DHT22;6611;52.604;13.438;2022-08-21T23:01:53;16.26;82.36
13091;DHT22;6611;52.604;13.438;2022-08-21T23:06:57;16.21;82.99
13091;DHT22;6611;52.604;13.438;2022-08-21T23:12:03;16.19;83.09
13091;DHT22;6611;52.604;13.438;2022-08-21T23:17:09;16.19;82.85
13091;DHT22;6611;52.604;13.438;2022-08-21T23:22:25;16.16;82.56
13091;DHT22;6611;52.604;13.438;2022-08-21T23:27:44;16.04;83.02
13091;DHT22;6611;52.604;13.438;2022-08-21T23:33:05;15.98;83.42
13091;DHT22;6611;52.604;13.438;2022-08-21T23:38:18;15.86;83.29
13091;DHT22;6611;52.604;13.438;2022-08-21T23:43:42;15.78;83.56
13091;DHT22;6611;52.604;13.438;2022-08-21T23:48:50;15.86;83.18
13091;DHT22;6611;52.604;13.438;2022-08-21T23:54:02;15.77;82.81
13091;DHT22;6611;52.604;13.438;2022-08-21T23:59:14;15.74;82.93
